sensor_id;sensor_type;location;lat;lon;timestamp;temperature;humidity
53802;DHT22;39709;53.334;6.534;2023-07-29T00:00:52;18.70;99.90
53802;DHT22;39709;53.334;6.534;2023-07-29T00:03:18;18.70;99.90
53802;DHT22;39709;53.334;6.534;2023-07-29T00:05:44;18.80;99.90
53802;DHT22;39709;53.334;6.534;2023-07-29T00:08:09;18.80;99.90
53802;DHT22;39709;53.334;6.534;2023-07-29T00:10:38;18.90;99.90
53802;DHT22;39709;53.334;6.534;2023-07-29T00:13:05;18.90;99.90
53802;DHT22;39709;53.334;6.534;2023-07-29T00:15:30;18.90;99.90
53802;DHT22;39709;53.334;6.534;2023-07-29T00:17:56;18.90;99.90
53802;DHT22;39709;53.334;6.534;2023-07-29T00:20:22;18.90;99.90
53802;DHT22;39709;53.334;6.534;2023-07-29T00:22:48;18.90;99.90
53802;DHT22;39709;53.334;6.534;2023-07-29T00:25:16;18.80;99.90
53802;DHT22;39709;53.334;6.534;2023-07-29T00:27:42;18.90;99.90
53802;DHT22;39709;53.334;6.534;2023-07-29T00:30:08;18.90;99.90
53802;DHT22;39709;53.334;6.534;2023-07-29T00:32:35;19.00;99.90
53802;DHT22;39709;53.334;6.534;2023-07-29T00:35:01;18.90;99.90
53802;DHT22;39709;53.334;6.534;2023-07-29T00:37:27;18.90;99.90
53802;DHT22;39709;53.334;6.534;2023-07-29T00:39:53;18.80;99.90
53802;DHT22;39709;53.334;6.534;2023-07-29T00:42:19;18.90;99.90
53802;DHT22;39709;53.334;6.534;2023-07-29T00:44:44;18.80;99.90
53802;DHT22;39709;53.334;6.534;2023-07-29T00:47:11;18.80;99.90
53802;DHT22;39709;53.334;6.534;2023-07-29T00:49:38;18.80;99.90
53802;DHT22;39709;53.334;6.534;2023-07-29T00:52:04;18.70;99.90
53802;DHT22;39709;53.334;6.534;2023-07-29T00:54:30;18.70;99.90
53802;DHT22;39709;53.334;6.534;2023-07-29T00:56:55;18.70;99.90
53802;DHT22;39709;53.334;6.534;2023-07-29T00:59:21;18.70;99.90
53802;DHT22;39709;53.334;6.534;2023-07-29T01:01:48;18.60;99.90
53802;DHT22;39709;53.334;6.534;2023-07-29T01:04:14;18.60;99.90
53802;DHT22;39709;53.334;6.534;2023-07-29T01:12:21;18.60;99.90
53802;DHT22;39709;53.334;6.534;2023-07-29T01:15:01;18.50;99.90
53802;DHT22;39709;53.334;6.534;2023-07-29T01:17:35;18.60;99.90
53802;DHT22;39709;53.334;6.534;2023-07-29T01:22:36;18.50;99.90
53802;DHT22;39709;53.334;6.534;2023-07-29T01:25:03;18.50;99.90
53802;DHT22;39709;53.334;6.534;2023-07-29T01:27:29;18.50;99.90
53802;DHT22;39709;53.334;6.534;2023-07-29T01:29:57;18.50;99.90
53802;DHT22;39709;53.334;6.534;2023-07-29T01:35:03;18.40;99.90
53802;DHT22;39709;53.334;6.534;2023-07-29T01:37:33;18.50;99.90
53802;DHT22;39709;53.334;6.534;2023-07-29T01:40:00;18.50;99.90
53802;DHT22;39709;53.334;6.534;2023-07-29T01:42:27;18.40;99.90
53802;DHT22;39709;53.334;6.534;2023-07-29T01:44:53;18.40;99.90
53802;DHT22;39709;53.334;6.534;2023-07-29T01:47:18;18.40;99.90
53802;DHT22;39709;53.334;6.534;2023-07-29T01:49:45;18.30;99.90
53802;DHT22;39709;53.334;6.534;2023-07-29T01:52:11;18.30;99.90
53802;DHT22;39709;53.334;6.534;2023-07-29T01:54:37;18.20;99.90
53802;DHT22;39709;53.334;6.534;2023-07-29T01:57:02;18.30;99.90
53802;DHT22;39709;53.334;6.534;2023-07-29T01:59:28;18.20;99.90
53802;DHT22;39709;53.334;6.534;2023-07-29T02:01:54;18.20;99.90
53802;DHT22;39709;53.334;6.534;2023-07-29T02:04:19;18.20;99.90
53802;DHT22;39709;53.334;6.534;2023-07-29T02:06:45;18.30;99.90
53802;DHT22;39709;53.334;6.534;2023-07-29T02:09:11;18.20;99.90
53802;DHT22;39709;53.334;6.534;2023-07-29T02:11:36;18.20;99.90
53802;DHT22;39709;53.334;6.534;2023-07-29T02:14:02;18.10;99.90
53802;DHT22;39709;53.334;6.534;2023-07-29T02:16:28;18.20;99.90
53802;DHT22;39709;53.334;6.534;2023-07-29T02:18:54;18.20;99.90
53802;DHT22;39709;53.334;6.534;2023-07-29T02:21:20;18.20;99.90
53802;DHT22;39709;53.334;6.534;2023-07-29T02:23:46;18.20;99.90
53802;DHT22;39709;53.334;6.534;2023-07-29T02:26:11;18.20;99.90
53802;DHT22;39709;53.334;6.534;2023-07-29T02:28:37;18.10;99.90
53802;DHT22;39709;53.334;6.534;2023-07-29T02:31:29;18.10;99.90
53802;DHT22;39709;53.334;6.534;2023-07-29T02:33:55;18.00;99.90
53802;DHT22;39709;53.334;6.534;2023-07-29T02:36:21;18.00;99.90
53802;DHT22;39709;53.334;6.534;2023-07-29T02:38:46;17.90;99.90
53802;DHT22;39709;53.334;6.534;2023-07-29T02:41:12;17.90;99.90
53802;DHT22;39709;53.334;6.534;2023-07-29T02:43:38;17.80;99.90
53802;DHT22;39709;53.334;6.534;2023-07-29T02:46:04;17.80;99.90
53802;DHT22;39709;53.334;6.534;2023-07-29T02:48:30;17.80;99.90
53802;DHT22;39709;53.334;6.534;2023-07-29T02:50:56;17.80;99.90
53802;DHT22;39709;53.334;6.534;2023-07-29T02:53:22;17.70;99.90
53802;DHT22;39709;53.334;6.534;2023-07-29T02:55:48;17.70;99.90
53802;DHT22;39709;53.334;6.534;2023-07-29T02:58:14;17.70;99.90
53802;DHT22;39709;53.334;6.534;2023-07-29T03:00:40;17.60;99.90
53802;DHT22;39709;53.334;6.534;2023-07-29T03:03:09;17.60;99.90
53802;DHT22;39709;53.334;6.534;2023-07-29T03:05:35;17.60;99.90
53802;DHT22;39709;53.334;6.534;2023-07-29T03:08:01;17.50;99.90
53802;DHT22;39709;53.334;6.534;2023-07-29T03:10:27;17.50;99.90
53802;DHT22;39709;53.334;6.534;2023-07-29T03:12:55;17.40;99.90
53802;DHT22;39709;53.334;6.534;2023-07-29T03:15:26;17.40;99.90
53802;DHT22;39709;53.334;6.534;2023-07-29T03:17:52;17.40;99.90
53802;DHT22;39709;53.334;6.534;2023-07-29T03:20:18;17.30;99.90
53802;DHT22;39709;53.334;6.534;2023-07-29T03:22:45;17.20;99.90
53802;DHT22;39709;53.334;6.534;2023-07-29T03:25:10;17.20;99.90
53802;DHT22;39709;53.334;6.534;2023-07-29T03:27:36;17.20;99.90
53802;DHT22;39709;53.334;6.534;2023-07-29T03:30:03;17.10;99.90
53802;DHT22;39709;53.334;6.534;2023-07-29T03:32:29;17.10;99.90
53802;DHT22;39709;53.334;6.534;2023-07-29T03:34:54;17.00;99.90
53802;DHT22;39709;53.334;6.534;2023-07-29T03:37:20;17.00;99.90
53802;DHT22;39709;53.334;6.534;2023-07-29T03:39:47;16.90;99.90
53802;DHT22;39709;53.334;6.534;2023-07-29T03:42:12;16.90;99.90
53802;DHT22;39709;53.334;6.534;2023-07-29T03:44:38;16.90;99.90
53802;DHT22;39709;53.334;6.534;2023-07-29T03:47:07;16.90;99.90
53802;DHT22;39709;53.334;6.534;2023-07-29T03:49:33;16.90;99.90
53802;DHT22;39709;53.334;6.534;2023-07-29T03:51:59;16.80;99.90
53802;DHT22;39709;53.334;6.534;2023-07-29T03:54:24;16.80;99.90
53802;DHT22;39709;53.334;6.534;2023-07-29T03:56:50;16.80;99.90
53802;DHT22;39709;53.334;6.534;2023-07-29T03:59:17;16.70;99.90
53802;DHT22;39709;53.334;6.534;2023-07-29T04:01:42;16.70;99.90
53802;DHT22;39709;53.334;6.534;2023-07-29T04:04:08;16.70;99.90
53802;DHT22;39709;53.334;6.534;2023-07-29T04:06:34;16.70;99.90
53802;DHT22;39709;53.334;6.534;2023-07-29T04:08:59;16.70;99.90
53802;DHT22;39709;53.334;6.534;2023-07-29T04:11:25;16.70;99.90
53802;DHT22;39709;53.334;6.534;2023-07-29T04:13:51;16.70;99.90
53802;DHT22;39709;53.334;6.534;2023-07-29T04:16:17;16.60;99.90
53802;DHT22;39709;53.334;6.534;2023-07-29T04:18:42;16.60;99.90
53802;DHT22;39709;53.334;6.534;2023-07-29T04:21:08;16.70;99.90
53802;DHT22;39709;53.334;6.534;2023-07-29T04:23:34;16.70;99.90
53802;DHT22;39709;53.334;6.534;2023-07-29T04:26:00;16.70;99.90
53802;DHT22;39709;53.334;6.534;2023-07-29T04:28:26;16.70;99.90
53802;DHT22;39709;53.334;6.534;2023-07-29T04:30:52;16.70;99.90
53802;DHT22;39709;53.334;6.534;2023-07-29T04:33:17;16.80;99.90
53802;DHT22;39709;53.334;6.534;2023-07-29T04:35:43;16.80;99.90
53802;DHT22;39709;53.334;6.534;2023-07-29T04:38:08;16.80;99.90
53802;DHT22;39709;53.334;6.534;2023-07-29T04:40:34;16.80;99.90
53802;DHT22;39709;53.334;6.534;2023-07-29T04:43:01;16.80;99.90
53802;DHT22;39709;53.334;6.534;2023-07-29T04:45:30;16.90;99.90
53802;DHT22;39709;53.334;6.534;2023-07-29T04:47:56;17.00;99.90
53802;DHT22;39709;53.334;6.534;2023-07-29T04:50:22;17.00;99.90
53802;DHT22;39709;53.334;6.534;2023-07-29T04:52:47;17.00;99.90
53802;DHT22;39709;53.334;6.534;2023-07-29T04:55:13;17.10;99.90
53802;DHT22;39709;53.334;6.534;2023-07-29T04:57:39;17.10;99.90
53802;DHT22;39709;53.334;6.534;2023-07-29T05:00:05;17.10;99.90
53802;DHT22;39709;53.334;6.534;2023-07-29T05:02:31;17.10;99.90
53802;DHT22;39709;53.334;6.534;2023-07-29T05:04:56;17.10;99.90
53802;DHT22;39709;53.334;6.534;2023-07-29T05:07:22;17.10;99.90
53802;DHT22;39709;53.334;6.534;2023-07-29T05:09:48;17.10;99.90
53802;DHT22;39709;53.334;6.534;2023-07-29T05:12:14;17.20;99.90
53802;DHT22;39709;53.334;6.534;2023-07-29T05:14:39;17.20;99.90
53802;DHT22;39709;53.334;6.534;2023-07-29T05:17:05;17.20;99.90
53802;DHT22;39709;53.334;6.534;2023-07-29T05:19:31;17.30;99.90
53802;DHT22;39709;53.334;6.534;2023-07-29T05:21:57;17.20;99.90
53802;DHT22;39709;53.334;6.534;2023-07-29T05:24:23;17.30;99.90
53802;DHT22;39709;53.334;6.534;2023-07-29T05:26:49;17.20;99.90
53802;DHT22;39709;53.334;6.534;2023-07-29T05:29:15;17.30;99.90
53802;DHT22;39709;53.334;6.534;2023-07-29T05:31:41;17.30;99.90
53802;DHT22;39709;53.334;6.534;2023-07-29T05:34:06;17.30;99.90
53802;DHT22;39709;53.334;6.534;2023-07-29T05:36:32;17.40;99.90
53802;DHT22;39709;53.334;6.534;2023-07-29T05:38:58;17.40;99.90
53802;DHT22;39709;53.334;6.534;2023-07-29T05:41:24;17.40;99.90
53802;DHT22;39709;53.334;6.534;2023-07-29T05:43:51;17.40;99.90
53802;DHT22;39709;53.334;6.534;2023-07-29T05:46:17;17.50;99.90
53802;DHT22;39709;53.334;6.534;2023-07-29T05:48:42;17.50;99.90
53802;DHT22;39709;53.334;6.534;2023-07-29T05:51:08;17.50;99.90
53802;DHT22;39709;53.334;6.534;2023-07-29T05:53:34;17.50;99.90
53802;DHT22;39709;53.334;6.534;2023-07-29T05:55:59;17.50;99.90
53802;DHT22;39709;53.334;6.534;2023-07-29T05:58:25;17.60;99.90
53802;DHT22;39709;53.334;6.534;2023-07-29T06:00:51;17.60;99.90
53802;DHT22;39709;53.334;6.534;2023-07-29T06:03:17;17.60;99.90
53802;DHT22;39709;53.334;6.534;2023-07-29T06:05:42;17.60;99.90
53802;DHT22;39709;53.334;6.534;2023-07-29T06:08:08;17.70;99.90
53802;DHT22;39709;53.334;6.534;2023-07-29T06:10:34;17.70;99.90
53802;DHT22;39709;53.334;6.534;2023-07-29T06:12:59;17.80;99.90
53802;DHT22;39709;53.334;6.534;2023-07-29T06:15:25;17.70;99.90
53802;DHT22;39709;53.334;6.534;2023-07-29T06:17:51;17.80;99.90
53802;DHT22;39709;53.334;6.534;2023-07-29T06:20:17;17.80;99.90
53802;DHT22;39709;53.334;6.534;2023-07-29T06:22:42;17.90;99.90
53802;DHT22;39709;53.334;6.534;2023-07-29T06:25:08;17.90;99.90
53802;DHT22;39709;53.334;6.534;2023-07-29T06:27:34;17.90;99.90
53802;DHT22;39709;53.334;6.534;2023-07-29T06:30:00;18.00;99.90
53802;DHT22;39709;53.334;6.534;2023-07-29T06:32:26;18.00;99.90
53802;DHT22;39709;53.334;6.534;2023-07-29T06:34:52;18.10;99.90
53802;DHT22;39709;53.334;6.534;2023-07-29T06:37:20;18.30;99.90
53802;DHT22;39709;53.334;6.534;2023-07-29T06:39:45;18.50;99.90
53802;DHT22;39709;53.334;6.534;2023-07-29T06:42:11;18.70;99.90
53802;DHT22;39709;53.334;6.534;2023-07-29T06:44:37;18.90;99.90
53802;DHT22;39709;53.334;6.534;2023-07-29T06:47:03;19.00;99.90
53802;DHT22;39709;53.334;6.534;2023-07-29T06:49:28;19.10;99.90
53802;DHT22;39709;53.334;6.534;2023-07-29T06:51:54;19.10;99.90
53802;DHT22;39709;53.334;6.534;2023-07-29T06:54:24;19.10;99.90
53802;DHT22;39709;53.334;6.534;2023-07-29T06:56:51;19.00;99.90
53802;DHT22;39709;53.334;6.534;2023-07-29T06:59:17;19.10;99.40
53802;DHT22;39709;53.334;6.534;2023-07-29T07:01:43;19.10;84.90
53802;DHT22;39709;53.334;6.534;2023-07-29T07:04:08;19.00;92.90
53802;DHT22;39709;53.334;6.534;2023-07-29T07:06:34;19.00;94.10
53802;DHT22;39709;53.334;6.534;2023-07-29T07:09:00;19.00;87.50
53802;DHT22;39709;53.334;6.534;2023-07-29T07:11:26;19.00;75.30
53802;DHT22;39709;53.334;6.534;2023-07-29T07:13:51;19.10;83.50
53802;DHT22;39709;53.334;6.534;2023-07-29T07:16:17;19.20;82.80
53802;DHT22;39709;53.334;6.534;2023-07-29T07:18:43;19.30;53.80
53802;DHT22;39709;53.334;6.534;2023-07-29T07:21:09;19.40;44.00
53802;DHT22;39709;53.334;6.534;2023-07-29T07:23:34;19.50;35.20
53802;DHT22;39709;53.334;6.534;2023-07-29T07:26:00;19.40;27.90
53802;DHT22;39709;53.334;6.534;2023-07-29T07:28:26;19.50;58.50
53802;DHT22;39709;53.334;6.534;2023-07-29T07:30:51;19.50;54.50
53802;DHT22;39709;53.334;6.534;2023-07-29T07:33:17;19.60;52.40
53802;DHT22;39709;53.334;6.534;2023-07-29T07:35:43;19.60;58.60
53802;DHT22;39709;53.334;6.534;2023-07-29T07:38:09;19.60;72.20
53802;DHT22;39709;53.334;6.534;2023-07-29T07:40:36;19.60;78.40
53802;DHT22;39709;53.334;6.534;2023-07-29T07:43:01;19.60;72.20
53802;DHT22;39709;53.334;6.534;2023-07-29T07:45:27;19.60;63.80
53802;DHT22;39709;53.334;6.534;2023-07-29T07:47:53;19.50;73.30
53802;DHT22;39709;53.334;6.534;2023-07-29T07:50:19;19.50;75.00
53802;DHT22;39709;53.334;6.534;2023-07-29T07:52:45;19.50;84.60
53802;DHT22;39709;53.334;6.534;2023-07-29T07:55:11;19.50;74.40
53802;DHT22;39709;53.334;6.534;2023-07-29T07:57:36;19.60;64.00
53802;DHT22;39709;53.334;6.534;2023-07-29T08:00:02;19.50;66.30
53802;DHT22;39709;53.334;6.534;2023-07-29T08:02:29;19.70;46.20
53802;DHT22;39709;53.334;6.534;2023-07-29T08:04:55;19.80;64.30
53802;DHT22;39709;53.334;6.534;2023-07-29T08:07:21;20.00;65.50
53802;DHT22;39709;53.334;6.534;2023-07-29T08:09:47;20.10;59.10
53802;DHT22;39709;53.334;6.534;2023-07-29T08:12:12;20.30;44.20
53802;DHT22;39709;53.334;6.534;2023-07-29T08:14:38;20.30;36.90
53802;DHT22;39709;53.334;6.534;2023-07-29T08:17:04;20.40;20.50
53802;DHT22;39709;53.334;6.534;2023-07-29T08:19:29;20.50;5.10
53802;DHT22;39709;53.334;6.534;2023-07-29T08:21:55;20.60;1.00
53802;DHT22;39709;53.334;6.534;2023-07-29T08:24:21;20.60;10.10
53802;DHT22;39709;53.334;6.534;2023-07-29T08:26:47;20.70;6.30
53802;DHT22;39709;53.334;6.534;2023-07-29T08:29:12;20.60;1.00
53802;DHT22;39709;53.334;6.534;2023-07-29T08:31:39;20.70;1.00
53802;DHT22;39709;53.334;6.534;2023-07-29T08:34:04;20.80;1.00
53802;DHT22;39709;53.334;6.534;2023-07-29T08:36:31;20.90;1.00
53802;DHT22;39709;53.334;6.534;2023-07-29T08:38:57;21.00;1.00
53802;DHT22;39709;53.334;6.534;2023-07-29T08:41:29;21.00;1.00
53802;DHT22;39709;53.334;6.534;2023-07-29T08:46:43;21.00;1.00
53802;DHT22;39709;53.334;6.534;2023-07-29T08:49:11;20.80;1.00
53802;DHT22;39709;53.334;6.534;2023-07-29T08:51:41;20.90;1.00
53802;DHT22;39709;53.334;6.534;2023-07-29T08:54:07;21.00;1.00
53802;DHT22;39709;53.334;6.534;2023-07-29T08:56:34;21.00;1.00
53802;DHT22;39709;53.334;6.534;2023-07-29T08:59:00;21.10;1.00
53802;DHT22;39709;53.334;6.534;2023-07-29T09:01:28;21.10;1.00
53802;DHT22;39709;53.334;6.534;2023-07-29T09:03:53;21.20;1.00
53802;DHT22;39709;53.334;6.534;2023-07-29T09:06:20;21.30;1.00
53802;DHT22;39709;53.334;6.534;2023-07-29T09:08:48;21.20;1.00
53802;DHT22;39709;53.334;6.534;2023-07-29T09:11:15;21.40;1.00
53802;DHT22;39709;53.334;6.534;2023-07-29T09:13:43;21.50;1.00
53802;DHT22;39709;53.334;6.534;2023-07-29T09:16:09;21.50;1.00
53802;DHT22;39709;53.334;6.534;2023-07-29T09:18:35;21.60;1.00
53802;DHT22;39709;53.334;6.534;2023-07-29T09:21:01;21.60;1.00
53802;DHT22;39709;53.334;6.534;2023-07-29T09:23:27;21.50;1.00
53802;DHT22;39709;53.334;6.534;2023-07-29T09:26:03;21.40;1.00
53802;DHT22;39709;53.334;6.534;2023-07-29T09:28:36;21.50;1.00
53802;DHT22;39709;53.334;6.534;2023-07-29T09:31:02;21.60;1.00
53802;DHT22;39709;53.334;6.534;2023-07-29T09:33:29;21.80;1.00
53802;DHT22;39709;53.334;6.534;2023-07-29T09:35:57;22.40;1.00
53802;DHT22;39709;53.334;6.534;2023-07-29T09:38:28;22.30;1.00
53802;DHT22;39709;53.334;6.534;2023-07-29T09:40:56;22.30;1.00
53802;DHT22;39709;53.334;6.534;2023-07-29T09:43:30;22.40;1.00
53802;DHT22;39709;53.334;6.534;2023-07-29T09:46:03;22.20;1.00
53802;DHT22;39709;53.334;6.534;2023-07-29T09:48:36;22.30;1.00
53802;DHT22;39709;53.334;6.534;2023-07-29T09:51:13;22.30;1.00
53802;DHT22;39709;53.334;6.534;2023-07-29T09:53:43;22.40;1.00
53802;DHT22;39709;53.334;6.534;2023-07-29T09:56:10;22.40;1.00
53802;DHT22;39709;53.334;6.534;2023-07-29T09:58:35;22.60;1.00
53802;DHT22;39709;53.334;6.534;2023-07-29T10:01:07;22.60;1.00
53802;DHT22;39709;53.334;6.534;2023-07-29T10:03:34;22.90;1.00
53802;DHT22;39709;53.334;6.534;2023-07-29T10:06:03;22.90;1.00
53802;DHT22;39709;53.334;6.534;2023-07-29T10:08:30;23.00;1.00
53802;DHT22;39709;53.334;6.534;2023-07-29T10:11:14;23.10;1.00
53802;DHT22;39709;53.334;6.534;2023-07-29T10:13:40;23.00;1.00
53802;DHT22;39709;53.334;6.534;2023-07-29T10:16:06;22.90;1.00
53802;DHT22;39709;53.334;6.534;2023-07-29T10:18:33;23.00;1.00
53802;DHT22;39709;53.334;6.534;2023-07-29T10:21:00;22.80;1.00
53802;DHT22;39709;53.334;6.534;2023-07-29T10:23:27;22.80;1.00
53802;DHT22;39709;53.334;6.534;2023-07-29T10:26:04;22.80;1.00
53802;DHT22;39709;53.334;6.534;2023-07-29T10:28:31;22.80;1.00
53802;DHT22;39709;53.334;6.534;2023-07-29T10:30:57;22.90;1.00
53802;DHT22;39709;53.334;6.534;2023-07-29T10:33:24;23.00;1.00
53802;DHT22;39709;53.334;6.534;2023-07-29T10:35:49;23.10;1.00
53802;DHT22;39709;53.334;6.534;2023-07-29T10:38:16;23.20;1.00
53802;DHT22;39709;53.334;6.534;2023-07-29T10:40:46;23.50;1.00
53802;DHT22;39709;53.334;6.534;2023-07-29T10:43:13;23.50;1.00
53802;DHT22;39709;53.334;6.534;2023-07-29T10:45:43;23.60;1.00
53802;DHT22;39709;53.334;6.534;2023-07-29T10:48:13;23.50;1.00
53802;DHT22;39709;53.334;6.534;2023-07-29T10:54:12;23.30;1.00
53802;DHT22;39709;53.334;6.534;2023-07-29T10:56:58;23.40;1.00
53802;DHT22;39709;53.334;6.534;2023-07-29T10:59:33;23.50;1.00
53802;DHT22;39709;53.334;6.534;2023-07-29T11:02:12;23.50;1.00
53802;DHT22;39709;53.334;6.534;2023-07-29T11:04:47;23.30;1.00
53802;DHT22;39709;53.334;6.534;2023-07-29T11:17:34;22.80;1.00
53802;DHT22;39709;53.334;6.534;2023-07-29T11:20:02;22.60;1.00
53802;DHT22;39709;53.334;6.534;2023-07-29T11:22:29;22.50;1.00
53802;DHT22;39709;53.334;6.534;2023-07-29T11:24:55;22.40;1.00
53802;DHT22;39709;53.334;6.534;2023-07-29T11:27:20;22.40;1.00
53802;DHT22;39709;53.334;6.534;2023-07-29T11:29:47;22.30;1.00
53802;DHT22;39709;53.334;6.534;2023-07-29T11:32:13;22.20;1.00
53802;DHT22;39709;53.334;6.534;2023-07-29T11:34:39;22.20;1.00
53802;DHT22;39709;53.334;6.534;2023-07-29T11:37:10;22.10;1.00
53802;DHT22;39709;53.334;6.534;2023-07-29T11:39:43;22.20;1.00
53802;DHT22;39709;53.334;6.534;2023-07-29T11:42:15;22.50;1.00
53802;DHT22;39709;53.334;6.534;2023-07-29T11:44:41;22.70;1.00
53802;DHT22;39709;53.334;6.534;2023-07-29T11:47:12;22.70;1.00
53802;DHT22;39709;53.334;6.534;2023-07-29T11:49:39;22.90;1.00
53802;DHT22;39709;53.334;6.534;2023-07-29T11:52:09;23.10;1.00
53802;DHT22;39709;53.334;6.534;2023-07-29T11:54:39;23.20;1.00
53802;DHT22;39709;53.334;6.534;2023-07-29T11:57:08;23.40;1.00
53802;DHT22;39709;53.334;6.534;2023-07-29T11:59:36;23.40;1.00
53802;DHT22;39709;53.334;6.534;2023-07-29T12:02:07;23.20;1.00
53802;DHT22;39709;53.334;6.534;2023-07-29T12:04:34;22.90;1.00
53802;DHT22;39709;53.334;6.534;2023-07-29T12:07:00;22.30;1.00
53802;DHT22;39709;53.334;6.534;2023-07-29T12:09:27;21.70;1.00
53802;DHT22;39709;53.334;6.534;2023-07-29T12:11:54;21.10;1.00
53802;DHT22;39709;53.334;6.534;2023-07-29T12:14:20;20.80;4.30
53802;DHT22;39709;53.334;6.534;2023-07-29T12:16:48;20.70;74.90
53802;DHT22;39709;53.334;6.534;2023-07-29T12:19:14;20.70;17.90
53802;DHT22;39709;53.334;6.534;2023-07-29T12:21:44;20.40;49.60
53802;DHT22;39709;53.334;6.534;2023-07-29T12:24:12;20.50;1.00
53802;DHT22;39709;53.334;6.534;2023-07-29T12:26:40;20.60;1.00
53802;DHT22;39709;53.334;6.534;2023-07-29T12:29:12;20.60;1.00
53802;DHT22;39709;53.334;6.534;2023-07-29T12:31:38;20.40;35.10
53802;DHT22;39709;53.334;6.534;2023-07-29T12:34:04;20.40;35.40
53802;DHT22;39709;53.334;6.534;2023-07-29T12:36:43;20.60;11.20
53802;DHT22;39709;53.334;6.534;2023-07-29T12:39:24;20.60;65.10
53802;DHT22;39709;53.334;6.534;2023-07-29T12:41:51;20.60;91.20
53802;DHT22;39709;53.334;6.534;2023-07-29T12:44:17;20.80;30.60
53802;DHT22;39709;53.334;6.534;2023-07-29T12:46:43;20.90;23.00
53802;DHT22;39709;53.334;6.534;2023-07-29T12:49:09;20.90;33.60
53802;DHT22;39709;53.334;6.534;2023-07-29T12:51:35;21.00;4.80
53802;DHT22;39709;53.334;6.534;2023-07-29T12:54:02;21.00;14.20
53802;DHT22;39709;53.334;6.534;2023-07-29T12:56:28;21.00;7.30
53802;DHT22;39709;53.334;6.534;2023-07-29T12:58:56;20.90;8.10
53802;DHT22;39709;53.334;6.534;2023-07-29T13:01:23;21.00;27.20
53802;DHT22;39709;53.334;6.534;2023-07-29T13:03:49;21.00;20.40
53802;DHT22;39709;53.334;6.534;2023-07-29T13:06:14;21.10;1.00
53802;DHT22;39709;53.334;6.534;2023-07-29T13:08:41;21.20;1.00
53802;DHT22;39709;53.334;6.534;2023-07-29T13:11:07;21.20;1.00
53802;DHT22;39709;53.334;6.534;2023-07-29T13:13:33;21.10;1.00
53802;DHT22;39709;53.334;6.534;2023-07-29T13:15:59;21.10;1.00
53802;DHT22;39709;53.334;6.534;2023-07-29T13:18:24;21.20;1.00
53802;DHT22;39709;53.334;6.534;2023-07-29T13:20:50;21.30;1.00
53802;DHT22;39709;53.334;6.534;2023-07-29T13:23:16;21.40;1.00
53802;DHT22;39709;53.334;6.534;2023-07-29T13:25:42;21.40;1.00
53802;DHT22;39709;53.334;6.534;2023-07-29T13:28:10;21.50;1.00
53802;DHT22;39709;53.334;6.534;2023-07-29T13:30:36;21.60;1.00
53802;DHT22;39709;53.334;6.534;2023-07-29T13:33:02;21.70;1.00
53802;DHT22;39709;53.334;6.534;2023-07-29T13:35:29;21.80;1.00
53802;DHT22;39709;53.334;6.534;2023-07-29T13:37:55;21.70;1.00
53802;DHT22;39709;53.334;6.534;2023-07-29T13:40:20;21.80;1.00
53802;DHT22;39709;53.334;6.534;2023-07-29T13:42:46;21.90;1.00
53802;DHT22;39709;53.334;6.534;2023-07-29T13:45:12;22.10;1.00
53802;DHT22;39709;53.334;6.534;2023-07-29T13:47:38;22.20;1.00
53802;DHT22;39709;53.334;6.534;2023-07-29T13:50:04;22.20;1.00
53802;DHT22;39709;53.334;6.534;2023-07-29T13:52:29;22.10;1.00
53802;DHT22;39709;53.334;6.534;2023-07-29T13:54:55;22.00;1.00
53802;DHT22;39709;53.334;6.534;2023-07-29T13:57:21;21.90;1.00
53802;DHT22;39709;53.334;6.534;2023-07-29T13:59:47;21.80;1.00
53802;DHT22;39709;53.334;6.534;2023-07-29T14:02:13;21.70;1.00
53802;DHT22;39709;53.334;6.534;2023-07-29T14:04:38;21.70;1.00
53802;DHT22;39709;53.334;6.534;2023-07-29T14:07:04;21.70;1.00
53802;DHT22;39709;53.334;6.534;2023-07-29T14:09:30;21.90;1.00
53802;DHT22;39709;53.334;6.534;2023-07-29T14:11:56;22.20;1.00
53802;DHT22;39709;53.334;6.534;2023-07-29T14:14:21;22.30;1.00
53802;DHT22;39709;53.334;6.534;2023-07-29T14:16:47;22.60;1.00
53802;DHT22;39709;53.334;6.534;2023-07-29T14:19:14;22.60;1.00
53802;DHT22;39709;53.334;6.534;2023-07-29T14:21:40;22.70;1.00
53802;DHT22;39709;53.334;6.534;2023-07-29T14:24:06;22.60;1.00
53802;DHT22;39709;53.334;6.534;2023-07-29T14:26:31;22.50;1.00
53802;DHT22;39709;53.334;6.534;2023-07-29T14:28:57;22.40;1.00
53802;DHT22;39709;53.334;6.534;2023-07-29T14:31:23;22.30;1.00
53802;DHT22;39709;53.334;6.534;2023-07-29T14:33:49;22.30;1.00
53802;DHT22;39709;53.334;6.534;2023-07-29T14:36:15;22.20;1.00
53802;DHT22;39709;53.334;6.534;2023-07-29T14:38:41;22.10;1.00
53802;DHT22;39709;53.334;6.534;2023-07-29T14:41:07;22.10;1.00
53802;DHT22;39709;53.334;6.534;2023-07-29T14:43:33;22.10;1.00
53802;DHT22;39709;53.334;6.534;2023-07-29T14:45:59;22.20;1.00
53802;DHT22;39709;53.334;6.534;2023-07-29T14:48:25;22.20;1.00
53802;DHT22;39709;53.334;6.534;2023-07-29T14:50:51;22.30;1.00
53802;DHT22;39709;53.334;6.534;2023-07-29T14:53:16;22.50;1.00
53802;DHT22;39709;53.334;6.534;2023-07-29T14:55:42;22.60;1.00
53802;DHT22;39709;53.334;6.534;2023-07-29T14:58:08;22.60;1.00
53802;DHT22;39709;53.334;6.534;2023-07-29T15:00:33;22.50;1.00
53802;DHT22;39709;53.334;6.534;2023-07-29T15:02:59;22.60;1.00
53802;DHT22;39709;53.334;6.534;2023-07-29T15:05:25;22.50;1.00
53802;DHT22;39709;53.334;6.534;2023-07-29T15:07:51;22.60;1.00
53802;DHT22;39709;53.334;6.534;2023-07-29T15:10:17;22.50;1.00
53802;DHT22;39709;53.334;6.534;2023-07-29T15:12:43;22.60;1.00
53802;DHT22;39709;53.334;6.534;2023-07-29T15:15:10;22.50;1.00
53802;DHT22;39709;53.334;6.534;2023-07-29T15:17:37;22.70;1.00
53802;DHT22;39709;53.334;6.534;2023-07-29T15:20:03;23.10;1.00
53802;DHT22;39709;53.334;6.534;2023-07-29T15:22:29;23.30;1.00
53802;DHT22;39709;53.334;6.534;2023-07-29T15:25:00;23.30;1.00
53802;DHT22;39709;53.334;6.534;2023-07-29T15:27:27;23.00;1.00
53802;DHT22;39709;53.334;6.534;2023-07-29T15:29:53;23.20;1.00
53802;DHT22;39709;53.334;6.534;2023-07-29T15:32:19;23.20;1.00
53802;DHT22;39709;53.334;6.534;2023-07-29T15:34:45;22.90;1.00
53802;DHT22;39709;53.334;6.534;2023-07-29T15:37:10;22.70;1.00
53802;DHT22;39709;53.334;6.534;2023-07-29T15:39:36;22.40;1.00
53802;DHT22;39709;53.334;6.534;2023-07-29T15:42:02;22.30;1.00
53802;DHT22;39709;53.334;6.534;2023-07-29T15:44:28;22.30;1.00
53802;DHT22;39709;53.334;6.534;2023-07-29T15:46:53;22.30;1.00
53802;DHT22;39709;53.334;6.534;2023-07-29T15:49:21;22.30;1.00
53802;DHT22;39709;53.334;6.534;2023-07-29T15:51:46;22.40;1.00
53802;DHT22;39709;53.334;6.534;2023-07-29T15:54:12;22.20;1.00
53802;DHT22;39709;53.334;6.534;2023-07-29T15:56:38;22.40;1.00
53802;DHT22;39709;53.334;6.534;2023-07-29T15:59:05;22.60;1.00
53802;DHT22;39709;53.334;6.534;2023-07-29T16:01:31;23.00;1.00